Francis, Utah
Current Conditions -  °F | °C
As of 4:53 PM on Sunday 21 Dec 2014 (Local Time) from KEVW Reporting Station
Light Snow Light Snow  
Wind Chill: 25°   Ceiling: 1000
Heat Index: 35°   Visibility: 8mi
Dew Point: 33°   Wind: 17mph
Humidity: 92%   Direction: 250°WSW
Pressure: 29.85"   Gusts: NA
Location:  40.8065°N, 110.723°W
Report Text: KEVW 212353Z AUTO 25015KT 8SM -SN BKN010 BKN014 OVC019 02/01 A2985 RMK AO2 RAE51SNB51 SLP099 P0001 60003 T00170006 10022 20006 51009
Loading
Personal Weather Stations






























Interactive Weather Map New forecast layout! Learn more

10-Day Weather Forecast

Advertisements
Track Severe Weather on mobile